Terminal Aerodrome Forecast
Issued by NWS Portland, OR

Home | Current Version | Previous Version | Text Only | Print | Product List | Glossary On
Versions: 1 2 3 4 5 6 7 8 9 10 11 12 13 14 15 16
000
FTUS46 KPQR 261139
TAFAST
TAF
KAST 261139Z 2612/2712 22011G18KT 4SM -RA BR BKN015 OVC025
     FM261500 21009G17KT P6SM -SHRA OVC019
     FM262100 13006KT P6SM -SHRA OVC019
     FM270300 09004KT P6SM VCSH BKN030=

USA.gov is the U.S. government's official web portal to all federal, state and local government web resources and services.